Crumlin, United Kingdom
Current Conditions -  °F | °C
As of 9:20 AM on Friday 19 Dec 2014 (Local Time) from EGAA Reporting Station
Scattered Clouds Scattered Clouds  
Wind Chill: 32°   Ceiling: Unl
Heat Index: 39°   Visibility: 6mi
Dew Point: 36°   Wind: 13mph
Humidity: 87%   Direction: 260°W
Pressure: 29.8"   Gusts: NA
Location:  54.62°N, 6.22°W
Report Text: EGAA 190920Z 26011KT 9999 FEW033 SCT039 04/02 Q1009
Loading
Personal Weather Stations






























Interactive Weather Map New forecast layout! Learn more

10-Day Weather Forecast

Advertisements
Track Severe Weather on mobile